KMNM

Menominee-Marinette Twin County Airport

Menominee, Michigan, USA
METAR KMNM 240156Z AUTO 19005KT 10SM CLR 18/13 A3013 RMK AO2 SLP216 T01830133 $
Observed Flight Rules
May-24 @ 01:56 UTC (25 minutes ago) Visual Flight Rules
Wind Visibility Clouds
190° at 5 knots 10 miles
  • Clear skies
Temperatures Readings
Current 18°C / 64°F
Dewpoint 13°C / 55°F
Humidity 73%
Altimeter 30.13" Hg
Pressure 1021.6 hPa
Elevation 191
METAR KMNM 240156Z AUTO 19005KT 10SM CLR 18/13 A3013 RMK AO2 SLP216 T01830133 $
Observed Flight Rules
May-24 @ 01:56 UTC
(25 minutes ago)
VFR
Wind Visibility
190° at 5 knots 10 miles
Clouds
  • Clear skies
Temperature Dewpoint
18°C / 64°F 13°C / 55°F
Humidity Altimeter Pressure
73% 30.13" Hg 1021.6 hPa